createdAt,value
2023-09-04T00:03:56.249Z,14.00
2023-09-04T00:08:59.938Z,13.85
2023-09-04T00:14:01.729Z,13.70
2023-09-04T00:19:03.712Z,13.56
2023-09-04T00:24:05.796Z,13.41
2023-09-04T00:29:07.874Z,13.26
2023-09-04T00:34:10.159Z,13.14
2023-09-04T00:39:12.158Z,13.01
2023-09-04T00:44:14.428Z,12.88
2023-09-04T00:49:16.924Z,12.74
2023-09-04T00:54:19.816Z,12.62
2023-09-04T00:59:24.864Z,12.50
2023-09-04T01:04:26.752Z,12.37
2023-09-04T01:09:28.929Z,12.25
2023-09-04T01:14:34.599Z,12.17
2023-09-04T01:19:39.757Z,12.12
2023-09-04T01:24:43.203Z,12.10
2023-09-04T01:29:51.699Z,12.09
2023-09-04T01:34:55.006Z,12.01
2023-09-04T01:39:57.091Z,11.95
2023-09-04T01:44:58.964Z,11.87
2023-09-04T01:50:00.944Z,11.81
2023-09-04T01:55:03.343Z,11.76
2023-09-04T02:00:06.972Z,11.68
2023-09-04T02:05:09.141Z,11.60
2023-09-04T02:10:11.021Z,11.57
2023-09-04T02:15:13.296Z,11.60
2023-09-04T02:20:15.176Z,11.62
2023-09-04T02:25:17.050Z,11.65
2023-09-04T02:30:19.032Z,11.70
2023-09-04T02:35:21.151Z,11.77
2023-09-04T02:40:23.408Z,11.84
2023-09-04T02:45:28.768Z,11.91
2023-09-04T02:50:31.048Z,11.97
2023-09-04T02:55:33.334Z,12.03
2023-09-04T03:00:35.312Z,12.09
2023-09-04T03:05:37.189Z,12.17
2023-09-04T03:10:39.065Z,12.26
2023-09-04T03:15:40.875Z,12.33
2023-09-04T03:20:44.157Z,12.37
2023-09-04T03:25:46.041Z,12.40
2023-09-04T03:30:48.138Z,12.45
2023-09-04T03:35:50.194Z,12.49
2023-09-04T03:40:52.271Z,12.51
2023-09-04T03:45:54.148Z,12.55
2023-09-04T03:51:00.022Z,12.59
2023-09-04T03:56:06.737Z,12.63
2023-09-04T04:01:08.644Z,12.66
2023-09-04T04:06:14.349Z,12.66
2023-09-04T04:11:16.329Z,12.68
2023-09-04T04:16:18.347Z,12.72
2023-09-04T04:21:20.293Z,12.78
2023-09-04T04:26:22.178Z,12.85
2023-09-04T04:31:24.180Z,12.91
2023-09-04T04:36:27.203Z,12.98
2023-09-04T04:41:29.333Z,13.06
2023-09-04T04:46:32.689Z,13.15
2023-09-04T04:51:34.731Z,13.26
2023-09-04T04:56:36.702Z,13.39
2023-09-04T05:01:38.647Z,13.51
2023-09-04T05:06:40.769Z,13.65
2023-09-04T05:11:42.748Z,13.81
2023-09-04T05:16:44.624Z,14.03
2023-09-04T05:21:56.110Z,14.29
2023-09-04T05:26:59.140Z,14.55
2023-09-04T05:32:04.086Z,14.77
2023-09-04T05:37:09.132Z,14.91
2023-09-04T05:42:11.323Z,15.04
2023-09-04T05:47:13.297Z,15.15
2023-09-04T05:52:15.521Z,15.31
2023-09-04T05:57:17.864Z,15.53
2023-09-04T06:02:19.743Z,15.78
2023-09-04T06:07:21.634Z,16.11
2023-09-04T06:12:23.497Z,16.41
2023-09-04T06:17:25.518Z,16.80
2023-09-04T06:22:27.578Z,17.30
2023-09-04T06:27:29.746Z,17.94
2023-09-04T06:32:31.653Z,18.59
2023-09-04T06:37:33.747Z,19.36
2023-09-04T06:42:35.591Z,19.95
2023-09-04T06:47:39.203Z,20.18
2023-09-04T06:52:41.276Z,20.40
2023-09-04T06:57:43.158Z,21.12
2023-09-04T07:02:45.090Z,21.61
2023-09-04T07:07:48.555Z,22.40
2023-09-04T07:12:52.963Z,23.51
2023-09-04T07:17:55.434Z,24.32
2023-09-04T07:23:09.940Z,25.68
2023-09-04T07:28:16.885Z,26.34
2023-09-04T07:33:18.832Z,26.47
2023-09-04T07:38:20.701Z,27.18
2023-09-04T07:43:23.112Z,27.26
2023-09-04T07:48:25.382Z,27.29
2023-09-04T07:53:28.037Z,27.73
2023-09-04T07:58:30.164Z,28.20
2023-09-04T08:03:32.085Z,28.74
2023-09-04T08:08:34.122Z,29.67
2023-09-04T08:13:36.091Z,30.91
2023-09-04T08:18:37.864Z,32.07
2023-09-04T08:23:39.744Z,33.45
2023-09-04T08:28:42.848Z,33.91
2023-09-04T08:33:44.854Z,33.53
2023-09-04T08:38:47.119Z,32.95
2023-09-04T08:43:50.189Z,31.86
2023-09-04T08:48:53.858Z,31.70
2023-09-04T08:53:58.373Z,32.05
2023-09-04T08:59:02.402Z,31.94
2023-09-04T09:04:06.013Z,31.53
2023-09-04T09:09:09.061Z,31.21
2023-09-04T09:14:13.768Z,32.19
2023-09-04T09:19:15.544Z,34.42
2023-09-04T09:24:19.976Z,36.98
2023-09-04T09:29:21.960Z,38.87
2023-09-04T09:34:25.575Z,39.45
2023-09-04T09:39:30.419Z,38.90
2023-09-04T09:44:32.298Z,37.96
2023-09-04T09:49:37.149Z,38.42
2023-09-04T09:54:47.689Z,38.66
2023-09-04T09:59:51.675Z,37.44
2023-09-04T10:04:54.361Z,37.21
2023-09-04T10:10:04.052Z,37.98
2023-09-04T10:15:07.806Z,38.27
2023-09-04T10:20:12.342Z,36.35
2023-09-04T10:25:51.523Z,33.74
2023-09-04T10:30:56.304Z,31.46
2023-09-04T10:35:59.371Z,29.81
2023-09-04T10:41:01.979Z,28.82
2023-09-04T10:46:14.615Z,28.29
2023-09-04T10:51:35.258Z,27.83
2023-09-04T10:57:01.606Z,27.61
2023-09-04T11:02:29.309Z,27.66
2023-09-04T11:07:35.336Z,27.70
2023-09-04T11:12:38.854Z,27.53
2023-09-04T11:17:44.835Z,27.45
2023-09-04T11:22:50.281Z,27.49
2023-09-04T11:27:52.552Z,27.02
2023-09-04T11:32:54.876Z,26.75
2023-09-04T11:38:00.121Z,26.69
2023-09-04T11:43:04.025Z,26.75
2023-09-04T11:48:06.036Z,26.84
2023-09-04T11:53:07.984Z,27.17
2023-09-04T11:58:11.525Z,27.11
2023-09-04T12:03:13.732Z,27.01
2023-09-04T12:08:15.968Z,26.91
2023-09-04T12:13:19.690Z,26.89
2023-09-04T12:18:22.523Z,26.91
2023-09-04T12:23:46.034Z,27.06
2023-09-04T12:28:48.461Z,27.31
2023-09-04T12:33:52.915Z,27.38
2023-09-04T12:38:54.671Z,27.33
2023-09-04T12:43:58.598Z,27.19
2023-09-04T12:49:00.600Z,27.03
2023-09-04T12:54:02.978Z,26.83
2023-09-04T12:59:05.256Z,26.73
2023-09-04T13:04:07.647Z,26.68
2023-09-04T13:09:09.729Z,26.61
2023-09-04T13:14:11.860Z,26.49
2023-09-04T13:19:14.638Z,26.31
2023-09-04T13:24:16.583Z,26.19
2023-09-04T13:29:18.459Z,26.00
2023-09-04T13:34:20.236Z,25.82
2023-09-04T13:39:22.108Z,25.77
2023-09-04T13:44:25.110Z,25.89
2023-09-04T13:49:27.088Z,25.99
2023-09-04T13:54:28.768Z,26.00
2023-09-04T13:59:30.850Z,25.96
2023-09-04T14:04:32.770Z,25.86
2023-09-04T14:09:35.920Z,25.68
2023-09-04T14:14:38.121Z,25.56
2023-09-04T14:19:39.994Z,25.56
2023-09-04T14:24:41.875Z,25.54
2023-09-04T14:29:44.057Z,25.38
2023-09-04T14:34:45.939Z,25.18
2023-09-04T14:39:48.016Z,25.04
2023-09-04T14:44:52.764Z,24.91
2023-09-04T14:49:54.633Z,24.80
2023-09-04T14:54:56.515Z,24.66
2023-09-04T14:59:58.854Z,24.52
2023-09-04T15:05:00.580Z,24.37
2023-09-04T15:10:03.886Z,24.25
2023-09-04T15:15:06.734Z,24.07
2023-09-04T15:20:09.377Z,23.88
2023-09-04T15:25:11.357Z,23.67
2023-09-04T15:30:13.861Z,23.45
2023-09-04T15:35:15.945Z,23.21
2023-09-04T15:40:18.420Z,22.96
2023-09-04T15:45:20.868Z,22.74
2023-09-04T15:50:24.120Z,22.58
2023-09-04T15:55:25.907Z,22.49
2023-09-04T16:00:29.619Z,22.42
2023-09-04T16:05:31.577Z,22.34
2023-09-04T16:10:35.111Z,22.23
2023-09-04T16:15:37.396Z,22.15
2023-09-04T16:20:43.781Z,22.08
2023-09-04T16:25:46.794Z,21.97
2023-09-04T16:30:50.109Z,21.86
2023-09-04T16:35:53.625Z,21.75
2023-09-04T16:40:55.692Z,21.59
2023-09-04T16:45:57.619Z,21.40
2023-09-04T16:50:59.647Z,21.20
2023-09-04T16:56:01.449Z,20.98
2023-09-04T17:01:03.967Z,20.74
2023-09-04T17:06:05.897Z,20.50
2023-09-04T17:11:07.818Z,20.27
2023-09-04T17:16:10.014Z,20.04
2023-09-04T17:21:12.925Z,19.86
2023-09-04T17:26:15.144Z,19.76
2023-09-04T17:31:17.359Z,19.69
2023-09-04T17:36:19.415Z,19.63
2023-09-04T17:41:21.288Z,19.57
2023-09-04T17:46:23.630Z,19.52
2023-09-04T17:51:25.657Z,19.49
2023-09-04T17:56:27.736Z,19.45
2023-09-04T18:01:30.400Z,19.45
2023-09-04T18:06:35.298Z,19.45
2023-09-04T18:11:37.566Z,19.45
2023-09-04T18:16:39.960Z,19.44
2023-09-04T18:21:42.597Z,19.43
2023-09-04T18:26:47.717Z,19.40
2023-09-04T18:31:49.626Z,19.37
2023-09-04T18:36:52.299Z,19.35
2023-09-04T18:41:54.873Z,19.32
2023-09-04T18:46:56.716Z,19.27
2023-09-04T18:51:59.141Z,19.25
2023-09-04T18:57:01.024Z,19.23
2023-09-04T19:02:03.343Z,19.20
2023-09-04T19:07:05.484Z,19.18
2023-09-04T19:12:07.881Z,19.17
2023-09-04T19:17:10.577Z,19.16
2023-09-04T19:22:12.870Z,19.15
2023-09-04T19:27:18.143Z,19.12
2023-09-04T19:32:21.260Z,19.08
2023-09-04T19:37:23.308Z,19.05
2023-09-04T19:42:25.182Z,19.04
2023-09-04T19:47:27.398Z,19.03
2023-09-04T19:52:29.443Z,19.02
2023-09-04T19:57:35.215Z,19.01
2023-09-04T20:02:38.126Z,19.00
2023-09-04T20:07:41.097Z,18.99
2023-09-04T20:12:43.605Z,18.96
2023-09-04T20:17:47.384Z,18.93
2023-09-04T20:22:54.135Z,18.91
2023-09-04T20:27:56.511Z,18.90
2023-09-04T20:32:59.132Z,18.89
2023-09-04T20:38:01.389Z,18.88
2023-09-04T20:43:03.682Z,18.85
2023-09-04T20:48:06.613Z,18.85
2023-09-04T20:53:08.863Z,18.85
2023-09-04T20:58:11.465Z,18.85
2023-09-04T21:03:14.075Z,18.85
2023-09-04T21:08:16.438Z,18.83
2023-09-04T21:13:38.180Z,18.78
2023-09-04T21:18:59.208Z,18.74
2023-09-04T21:24:20.186Z,18.70
2023-09-04T21:29:41.169Z,18.67
2023-09-04T21:35:01.978Z,18.64
2023-09-04T21:40:23.825Z,18.61
2023-09-04T21:45:44.312Z,18.59
2023-09-04T21:51:05.066Z,18.57
2023-09-04T21:56:25.778Z,18.57
2023-09-04T22:01:46.424Z,18.58
2023-09-04T22:07:07.115Z,18.59
2023-09-04T22:12:27.735Z,18.58
2023-09-04T22:17:48.298Z,18.57
2023-09-04T22:23:09.367Z,18.55
2023-09-04T22:28:29.883Z,18.53
2023-09-04T22:33:50.400Z,18.50
2023-09-04T22:39:11.136Z,18.49
2023-09-04T22:44:31.728Z,18.48
2023-09-04T22:49:52.762Z,18.47
2023-09-04T22:55:13.270Z,18.46
2023-09-04T23:00:34.113Z,18.44
2023-09-04T23:05:54.706Z,18.42
2023-09-04T23:11:15.534Z,18.42
2023-09-04T23:16:36.068Z,18.40
2023-09-04T23:21:39.707Z,18.38
2023-09-04T23:26:43.278Z,18.36
2023-09-04T23:31:46.291Z,18.34
2023-09-04T23:36:48.262Z,18.32
2023-09-04T23:42:08.973Z,18.30
2023-09-04T23:47:14.439Z,18.28
2023-09-04T23:52:16.211Z,18.27
2023-09-04T23:57:18.225Z,18.22
